sensor_id;sensor_type;location;lat;lon;timestamp;temperature;humidity
70068;DHT22;57425;51.616;6.680;2023-05-07T00:00:42;17.80;78.60
70068;DHT22;57425;51.616;6.680;2023-05-07T00:03:08;17.70;78.60
70068;DHT22;57425;51.616;6.680;2023-05-07T00:05:33;17.70;78.60
70068;DHT22;57425;51.616;6.680;2023-05-07T00:08:00;17.70;78.60
70068;DHT22;57425;51.616;6.680;2023-05-07T00:10:27;17.70;78.60
70068;DHT22;57425;51.616;6.680;2023-05-07T00:12:54;17.70;78.60
70068;DHT22;57425;51.616;6.680;2023-05-07T00:15:19;17.70;78.60
70068;DHT22;57425;51.616;6.680;2023-05-07T00:17:45;17.70;78.60
70068;DHT22;57425;51.616;6.680;2023-05-07T00:20:11;17.70;78.70
70068;DHT22;57425;51.616;6.680;2023-05-07T00:22:37;17.70;78.70
70068;DHT22;57425;51.616;6.680;2023-05-07T00:25:03;17.70;78.70
70068;DHT22;57425;51.616;6.680;2023-05-07T00:27:29;17.70;78.70
70068;DHT22;57425;51.616;6.680;2023-05-07T00:29:54;17.70;78.80
70068;DHT22;57425;51.616;6.680;2023-05-07T00:32:20;17.70;78.80
70068;DHT22;57425;51.616;6.680;2023-05-07T00:34:46;17.70;78.80
70068;DHT22;57425;51.616;6.680;2023-05-07T00:37:11;17.60;78.80
70068;DHT22;57425;51.616;6.680;2023-05-07T00:39:37;17.60;78.80
70068;DHT22;57425;51.616;6.680;2023-05-07T00:42:03;17.60;78.90
70068;DHT22;57425;51.616;6.680;2023-05-07T00:44:29;17.60;78.90
70068;DHT22;57425;51.616;6.680;2023-05-07T00:46:59;17.60;78.80
70068;DHT22;57425;51.616;6.680;2023-05-07T00:49:37;17.60;78.80
70068;DHT22;57425;51.616;6.680;2023-05-07T00:52:03;17.60;78.80
70068;DHT22;57425;51.616;6.680;2023-05-07T00:54:29;17.60;78.90
70068;DHT22;57425;51.616;6.680;2023-05-07T00:56:55;17.60;78.90
70068;DHT22;57425;51.616;6.680;2023-05-07T00:59:21;17.60;78.90
70068;DHT22;57425;51.616;6.680;2023-05-07T01:01:47;17.50;78.90
70068;DHT22;57425;51.616;6.680;2023-05-07T01:04:12;17.60;78.90
70068;DHT22;57425;51.616;6.680;2023-05-07T01:06:38;17.60;79.50
70068;DHT22;57425;51.616;6.680;2023-05-07T01:09:04;17.50;78.90
70068;DHT22;57425;51.616;6.680;2023-05-07T01:11:30;17.50;78.90
70068;DHT22;57425;51.616;6.680;2023-05-07T01:13:57;17.50;78.90
70068;DHT22;57425;51.616;6.680;2023-05-07T01:16:23;17.50;79.00
70068;DHT22;57425;51.616;6.680;2023-05-07T01:18:50;17.50;78.90
70068;DHT22;57425;51.616;6.680;2023-05-07T01:21:16;17.50;78.90
70068;DHT22;57425;51.616;6.680;2023-05-07T01:23:43;17.50;79.00
70068;DHT22;57425;51.616;6.680;2023-05-07T01:26:09;17.50;79.00
70068;DHT22;57425;51.616;6.680;2023-05-07T01:28:35;17.50;78.90
70068;DHT22;57425;51.616;6.680;2023-05-07T01:31:03;17.50;79.00
70068;DHT22;57425;51.616;6.680;2023-05-07T01:33:33;17.50;79.00
70068;DHT22;57425;51.616;6.680;2023-05-07T01:36:00;17.50;79.00
70068;DHT22;57425;51.616;6.680;2023-05-07T01:38:29;17.50;79.10
70068;DHT22;57425;51.616;6.680;2023-05-07T01:40:56;17.40;79.10
70068;DHT22;57425;51.616;6.680;2023-05-07T01:43:23;17.40;79.60
70068;DHT22;57425;51.616;6.680;2023-05-07T01:45:49;17.40;79.10
70068;DHT22;57425;51.616;6.680;2023-05-07T01:48:15;17.40;79.10
70068;DHT22;57425;51.616;6.680;2023-05-07T01:50:42;17.40;79.00
70068;DHT22;57425;51.616;6.680;2023-05-07T01:53:08;17.40;79.10
70068;DHT22;57425;51.616;6.680;2023-05-07T01:55:34;17.40;79.10
70068;DHT22;57425;51.616;6.680;2023-05-07T01:57:59;17.40;79.10
70068;DHT22;57425;51.616;6.680;2023-05-07T02:00:25;17.40;79.00
70068;DHT22;57425;51.616;6.680;2023-05-07T02:02:51;17.40;79.10
70068;DHT22;57425;51.616;6.680;2023-05-07T02:05:18;17.40;79.60
70068;DHT22;57425;51.616;6.680;2023-05-07T02:07:43;17.40;79.10
70068;DHT22;57425;51.616;6.680;2023-05-07T02:10:09;17.40;79.10
70068;DHT22;57425;51.616;6.680;2023-05-07T02:12:35;17.40;79.10
70068;DHT22;57425;51.616;6.680;2023-05-07T02:15:01;17.40;79.20
70068;DHT22;57425;51.616;6.680;2023-05-07T02:17:28;17.30;79.10
70068;DHT22;57425;51.616;6.680;2023-05-07T02:19:57;17.40;79.20
70068;DHT22;57425;51.616;6.680;2023-05-07T02:22:22;17.30;79.20
70068;DHT22;57425;51.616;6.680;2023-05-07T02:24:48;17.30;79.20
70068;DHT22;57425;51.616;6.680;2023-05-07T02:27:15;17.30;79.20
70068;DHT22;57425;51.616;6.680;2023-05-07T02:29:41;17.30;79.20
70068;DHT22;57425;51.616;6.680;2023-05-07T02:32:06;17.30;79.30
70068;DHT22;57425;51.616;6.680;2023-05-07T02:34:32;17.30;79.80
70068;DHT22;57425;51.616;6.680;2023-05-07T02:36:58;17.30;79.30
70068;DHT22;57425;51.616;6.680;2023-05-07T02:39:23;17.30;79.30
70068;DHT22;57425;51.616;6.680;2023-05-07T02:41:49;17.30;79.90
70068;DHT22;57425;51.616;6.680;2023-05-07T02:44:14;17.30;79.90
70068;DHT22;57425;51.616;6.680;2023-05-07T02:46:42;17.30;79.30
70068;DHT22;57425;51.616;6.680;2023-05-07T02:49:07;17.30;79.90
70068;DHT22;57425;51.616;6.680;2023-05-07T02:51:33;17.30;80.00
70068;DHT22;57425;51.616;6.680;2023-05-07T02:53:59;17.30;79.40
70068;DHT22;57425;51.616;6.680;2023-05-07T02:56:26;17.30;79.50
70068;DHT22;57425;51.616;6.680;2023-05-07T02:58:52;17.20;79.40
70068;DHT22;57425;51.616;6.680;2023-05-07T03:01:18;17.20;79.40
70068;DHT22;57425;51.616;6.680;2023-05-07T03:03:44;17.20;79.50
70068;DHT22;57425;51.616;6.680;2023-05-07T03:06:09;17.20;79.50
70068;DHT22;57425;51.616;6.680;2023-05-07T03:08:35;17.20;80.00
70068;DHT22;57425;51.616;6.680;2023-05-07T03:11:02;17.20;79.50
70068;DHT22;57425;51.616;6.680;2023-05-07T03:13:28;17.20;79.50
70068;DHT22;57425;51.616;6.680;2023-05-07T03:15:53;17.20;79.50
70068;DHT22;57425;51.616;6.680;2023-05-07T03:18:20;17.20;79.50
70068;DHT22;57425;51.616;6.680;2023-05-07T03:20:47;17.20;79.60
70068;DHT22;57425;51.616;6.680;2023-05-07T03:23:13;17.20;79.60
70068;DHT22;57425;51.616;6.680;2023-05-07T03:25:38;17.20;79.60
70068;DHT22;57425;51.616;6.680;2023-05-07T03:28:05;17.20;79.60
70068;DHT22;57425;51.616;6.680;2023-05-07T03:30:32;17.10;79.60
70068;DHT22;57425;51.616;6.680;2023-05-07T03:32:57;17.10;79.60
70068;DHT22;57425;51.616;6.680;2023-05-07T03:35:23;17.10;79.60
70068;DHT22;57425;51.616;6.680;2023-05-07T03:37:49;17.10;79.70
70068;DHT22;57425;51.616;6.680;2023-05-07T03:40:14;17.10;79.70
70068;DHT22;57425;51.616;6.680;2023-05-07T03:42:40;17.10;79.70
70068;DHT22;57425;51.616;6.680;2023-05-07T03:45:06;17.10;79.70
70068;DHT22;57425;51.616;6.680;2023-05-07T03:47:32;17.10;79.80
70068;DHT22;57425;51.616;6.680;2023-05-07T03:49:58;17.10;79.80
70068;DHT22;57425;51.616;6.680;2023-05-07T03:52:25;17.10;79.90
70068;DHT22;57425;51.616;6.680;2023-05-07T03:54:52;17.10;79.80
70068;DHT22;57425;51.616;6.680;2023-05-07T03:57:18;17.10;79.80
70068;DHT22;57425;51.616;6.680;2023-05-07T03:59:44;17.00;79.80
70068;DHT22;57425;51.616;6.680;2023-05-07T04:02:09;17.00;79.80
70068;DHT22;57425;51.616;6.680;2023-05-07T04:04:35;17.00;80.40
70068;DHT22;57425;51.616;6.680;2023-05-07T04:07:01;17.00;79.80
70068;DHT22;57425;51.616;6.680;2023-05-07T04:09:26;17.00;79.80
70068;DHT22;57425;51.616;6.680;2023-05-07T04:11:52;17.00;79.90
70068;DHT22;57425;51.616;6.680;2023-05-07T04:14:19;17.00;79.90
70068;DHT22;57425;51.616;6.680;2023-05-07T04:16:44;17.00;79.90
70068;DHT22;57425;51.616;6.680;2023-05-07T04:19:10;17.00;79.90
70068;DHT22;57425;51.616;6.680;2023-05-07T04:21:36;17.00;80.40
70068;DHT22;57425;51.616;6.680;2023-05-07T04:24:03;17.00;79.90
70068;DHT22;57425;51.616;6.680;2023-05-07T04:26:29;17.00;80.00
70068;DHT22;57425;51.616;6.680;2023-05-07T04:28:54;17.00;80.00
70068;DHT22;57425;51.616;6.680;2023-05-07T04:31:20;17.00;80.00
70068;DHT22;57425;51.616;6.680;2023-05-07T04:33:46;17.00;80.00
70068;DHT22;57425;51.616;6.680;2023-05-07T04:36:12;16.90;80.50
70068;DHT22;57425;51.616;6.680;2023-05-07T04:38:37;16.90;80.00
70068;DHT22;57425;51.616;6.680;2023-05-07T04:41:05;16.90;80.10
70068;DHT22;57425;51.616;6.680;2023-05-07T04:43:31;16.90;80.10
70068;DHT22;57425;51.616;6.680;2023-05-07T04:45:57;16.90;80.10
70068;DHT22;57425;51.616;6.680;2023-05-07T04:48:22;16.90;80.10
70068;DHT22;57425;51.616;6.680;2023-05-07T04:50:49;16.90;80.20
70068;DHT22;57425;51.616;6.680;2023-05-07T04:53:16;16.90;80.80
70068;DHT22;57425;51.616;6.680;2023-05-07T04:55:42;16.90;80.30
70068;DHT22;57425;51.616;6.680;2023-05-07T04:58:08;16.90;80.30
70068;DHT22;57425;51.616;6.680;2023-05-07T05:00:34;16.90;80.40
70068;DHT22;57425;51.616;6.680;2023-05-07T05:02:59;16.90;80.40
70068;DHT22;57425;51.616;6.680;2023-05-07T05:05:25;16.90;80.40
70068;DHT22;57425;51.616;6.680;2023-05-07T05:07:50;16.90;80.50
70068;DHT22;57425;51.616;6.680;2023-05-07T05:10:17;16.90;80.50
70068;DHT22;57425;51.616;6.680;2023-05-07T05:12:42;16.90;80.50
70068;DHT22;57425;51.616;6.680;2023-05-07T05:15:09;16.90;80.50
70068;DHT22;57425;51.616;6.680;2023-05-07T05:17:35;16.90;80.60
70068;DHT22;57425;51.616;6.680;2023-05-07T05:20:02;16.90;80.70
70068;DHT22;57425;51.616;6.680;2023-05-07T05:22:27;16.90;80.60
70068;DHT22;57425;51.616;6.680;2023-05-07T05:24:55;16.80;80.60
70068;DHT22;57425;51.616;6.680;2023-05-07T05:27:20;16.90;80.60
70068;DHT22;57425;51.616;6.680;2023-05-07T05:29:46;16.80;80.60
70068;DHT22;57425;51.616;6.680;2023-05-07T05:32:12;16.80;80.60
70068;DHT22;57425;51.616;6.680;2023-05-07T05:34:37;16.80;80.70
70068;DHT22;57425;51.616;6.680;2023-05-07T05:37:03;16.80;80.70
70068;DHT22;57425;51.616;6.680;2023-05-07T05:39:28;16.80;80.60
70068;DHT22;57425;51.616;6.680;2023-05-07T05:41:54;16.80;80.60
70068;DHT22;57425;51.616;6.680;2023-05-07T05:44:20;16.90;80.70
70068;DHT22;57425;51.616;6.680;2023-05-07T05:46:45;16.90;80.60
70068;DHT22;57425;51.616;6.680;2023-05-07T05:49:11;16.90;80.60
70068;DHT22;57425;51.616;6.680;2023-05-07T05:51:37;16.90;80.70
70068;DHT22;57425;51.616;6.680;2023-05-07T05:54:02;16.80;80.70
70068;DHT22;57425;51.616;6.680;2023-05-07T05:56:28;16.90;80.80
70068;DHT22;57425;51.616;6.680;2023-05-07T05:58:54;16.90;80.80
70068;DHT22;57425;51.616;6.680;2023-05-07T06:01:19;16.90;80.80
70068;DHT22;57425;51.616;6.680;2023-05-07T06:03:45;16.90;80.90
70068;DHT22;57425;51.616;6.680;2023-05-07T06:06:11;16.90;80.80
70068;DHT22;57425;51.616;6.680;2023-05-07T06:08:36;16.90;80.80
70068;DHT22;57425;51.616;6.680;2023-05-07T06:11:02;16.90;80.80
70068;DHT22;57425;51.616;6.680;2023-05-07T06:13:28;16.90;80.80
70068;DHT22;57425;51.616;6.680;2023-05-07T06:15:54;16.90;80.90
70068;DHT22;57425;51.616;6.680;2023-05-07T06:18:20;16.90;80.90
70068;DHT22;57425;51.616;6.680;2023-05-07T06:20:46;16.90;81.40
70068;DHT22;57425;51.616;6.680;2023-05-07T06:23:11;16.90;80.90
70068;DHT22;57425;51.616;6.680;2023-05-07T06:25:37;16.90;80.90
70068;DHT22;57425;51.616;6.680;2023-05-07T06:28:03;16.90;81.00
70068;DHT22;57425;51.616;6.680;2023-05-07T06:30:28;16.90;80.90
70068;DHT22;57425;51.616;6.680;2023-05-07T06:32:54;16.90;80.90
70068;DHT22;57425;51.616;6.680;2023-05-07T06:35:20;16.90;80.90
70068;DHT22;57425;51.616;6.680;2023-05-07T06:37:45;16.90;80.90
70068;DHT22;57425;51.616;6.680;2023-05-07T06:40:11;16.90;81.00
70068;DHT22;57425;51.616;6.680;2023-05-07T06:42:37;16.90;81.00
70068;DHT22;57425;51.616;6.680;2023-05-07T06:45:03;16.90;80.90
70068;DHT22;57425;51.616;6.680;2023-05-07T06:47:29;16.90;81.00
70068;DHT22;57425;51.616;6.680;2023-05-07T06:49:55;16.90;81.00
70068;DHT22;57425;51.616;6.680;2023-05-07T06:52:20;16.90;81.70
70068;DHT22;57425;51.616;6.680;2023-05-07T06:54:46;16.90;81.10
70068;DHT22;57425;51.616;6.680;2023-05-07T06:57:11;16.90;81.10
70068;DHT22;57425;51.616;6.680;2023-05-07T06:59:37;16.90;81.10
70068;DHT22;57425;51.616;6.680;2023-05-07T07:02:03;16.90;81.00
70068;DHT22;57425;51.616;6.680;2023-05-07T07:04:28;16.90;81.00
70068;DHT22;57425;51.616;6.680;2023-05-07T07:06:54;16.90;81.00
70068;DHT22;57425;51.616;6.680;2023-05-07T07:09:20;16.90;81.00
70068;DHT22;57425;51.616;6.680;2023-05-07T07:11:46;16.90;81.00
70068;DHT22;57425;51.616;6.680;2023-05-07T07:14:11;16.90;81.00
70068;DHT22;57425;51.616;6.680;2023-05-07T07:16:37;16.90;81.00
70068;DHT22;57425;51.616;6.680;2023-05-07T07:19:03;16.90;81.00
70068;DHT22;57425;51.616;6.680;2023-05-07T07:21:28;16.90;81.00
70068;DHT22;57425;51.616;6.680;2023-05-07T07:23:54;17.00;81.10
70068;DHT22;57425;51.616;6.680;2023-05-07T07:26:19;16.90;81.10
70068;DHT22;57425;51.616;6.680;2023-05-07T07:28:45;16.90;81.10
70068;DHT22;57425;51.616;6.680;2023-05-07T07:31:11;17.00;81.10
70068;DHT22;57425;51.616;6.680;2023-05-07T07:33:37;17.00;81.10
70068;DHT22;57425;51.616;6.680;2023-05-07T07:36:04;17.00;81.10
70068;DHT22;57425;51.616;6.680;2023-05-07T07:38:30;17.00;81.10
70068;DHT22;57425;51.616;6.680;2023-05-07T07:40:57;17.00;81.20
70068;DHT22;57425;51.616;6.680;2023-05-07T07:43:22;17.00;81.20
70068;DHT22;57425;51.616;6.680;2023-05-07T07:45:48;17.00;81.20
70068;DHT22;57425;51.616;6.680;2023-05-07T07:48:14;17.00;81.30
70068;DHT22;57425;51.616;6.680;2023-05-07T07:50:39;17.00;81.30
70068;DHT22;57425;51.616;6.680;2023-05-07T07:53:05;17.00;81.20
70068;DHT22;57425;51.616;6.680;2023-05-07T07:55:31;17.00;81.20
70068;DHT22;57425;51.616;6.680;2023-05-07T07:57:57;17.00;81.70
70068;DHT22;57425;51.616;6.680;2023-05-07T08:00:23;17.00;81.20
70068;DHT22;57425;51.616;6.680;2023-05-07T08:02:48;17.10;81.20
70068;DHT22;57425;51.616;6.680;2023-05-07T08:05:14;17.00;81.10
70068;DHT22;57425;51.616;6.680;2023-05-07T08:07:40;17.00;81.10
70068;DHT22;57425;51.616;6.680;2023-05-07T08:10:06;17.10;81.30
70068;DHT22;57425;51.616;6.680;2023-05-07T08:12:32;17.00;81.30
70068;DHT22;57425;51.616;6.680;2023-05-07T08:14:58;17.10;81.40
70068;DHT22;57425;51.616;6.680;2023-05-07T08:17:24;17.10;81.40
70068;DHT22;57425;51.616;6.680;2023-05-07T08:19:49;17.10;81.40
70068;DHT22;57425;51.616;6.680;2023-05-07T08:22:15;17.10;81.40
70068;DHT22;57425;51.616;6.680;2023-05-07T08:24:43;17.10;81.40
70068;DHT22;57425;51.616;6.680;2023-05-07T08:27:08;17.10;81.30
70068;DHT22;57425;51.616;6.680;2023-05-07T08:29:34;17.10;81.40
70068;DHT22;57425;51.616;6.680;2023-05-07T08:32:00;17.10;81.40
70068;DHT22;57425;51.616;6.680;2023-05-07T08:34:25;17.10;81.40
70068;DHT22;57425;51.616;6.680;2023-05-07T08:36:51;17.10;81.40
70068;DHT22;57425;51.616;6.680;2023-05-07T08:39:16;17.20;81.60
70068;DHT22;57425;51.616;6.680;2023-05-07T08:41:45;17.20;81.60
70068;DHT22;57425;51.616;6.680;2023-05-07T08:44:13;17.20;81.60
70068;DHT22;57425;51.616;6.680;2023-05-07T08:46:39;17.20;81.50
70068;DHT22;57425;51.616;6.680;2023-05-07T08:49:07;17.20;81.50
70068;DHT22;57425;51.616;6.680;2023-05-07T08:51:33;17.20;81.60
70068;DHT22;57425;51.616;6.680;2023-05-07T08:53:59;17.20;81.60
70068;DHT22;57425;51.616;6.680;2023-05-07T08:56:26;17.20;81.60
70068;DHT22;57425;51.616;6.680;2023-05-07T08:58:52;17.30;81.60
70068;DHT22;57425;51.616;6.680;2023-05-07T09:01:21;17.30;81.60
70068;DHT22;57425;51.616;6.680;2023-05-07T09:03:49;17.30;81.50
70068;DHT22;57425;51.616;6.680;2023-05-07T09:06:15;17.30;81.40
70068;DHT22;57425;51.616;6.680;2023-05-07T09:08:53;17.30;81.30
70068;DHT22;57425;51.616;6.680;2023-05-07T09:11:21;17.30;81.20
70068;DHT22;57425;51.616;6.680;2023-05-07T09:13:47;17.30;81.30
70068;DHT22;57425;51.616;6.680;2023-05-07T09:16:13;17.30;81.30
70068;DHT22;57425;51.616;6.680;2023-05-07T09:18:43;17.30;81.50
70068;DHT22;57425;51.616;6.680;2023-05-07T09:21:15;17.30;82.00
70068;DHT22;57425;51.616;6.680;2023-05-07T09:23:41;17.40;81.50
70068;DHT22;57425;51.616;6.680;2023-05-07T09:26:07;17.40;81.60
70068;DHT22;57425;51.616;6.680;2023-05-07T09:28:39;17.40;81.60
70068;DHT22;57425;51.616;6.680;2023-05-07T09:31:05;17.40;81.50
70068;DHT22;57425;51.616;6.680;2023-05-07T09:33:31;17.40;81.50
70068;DHT22;57425;51.616;6.680;2023-05-07T09:35:57;17.40;81.50
70068;DHT22;57425;51.616;6.680;2023-05-07T09:38:22;17.40;81.40
70068;DHT22;57425;51.616;6.680;2023-05-07T09:41:04;17.50;81.90
70068;DHT22;57425;51.616;6.680;2023-05-07T09:43:35;17.50;81.40
70068;DHT22;57425;51.616;6.680;2023-05-07T09:46:03;17.50;81.40
70068;DHT22;57425;51.616;6.680;2023-05-07T09:48:32;17.50;81.40
70068;DHT22;57425;51.616;6.680;2023-05-07T09:51:01;17.50;81.40
70068;DHT22;57425;51.616;6.680;2023-05-07T09:53:29;17.50;81.40
70068;DHT22;57425;51.616;6.680;2023-05-07T09:55:57;17.60;81.30
70068;DHT22;57425;51.616;6.680;2023-05-07T09:58:23;17.60;81.00
70068;DHT22;57425;51.616;6.680;2023-05-07T10:00:51;17.60;80.90
70068;DHT22;57425;51.616;6.680;2023-05-07T10:03:19;17.60;80.80
70068;DHT22;57425;51.616;6.680;2023-05-07T10:05:46;17.70;80.90
70068;DHT22;57425;51.616;6.680;2023-05-07T10:08:13;17.80;81.00
70068;DHT22;57425;51.616;6.680;2023-05-07T10:10:39;17.80;81.00
70068;DHT22;57425;51.616;6.680;2023-05-07T10:13:06;17.80;81.00
70068;DHT22;57425;51.616;6.680;2023-05-07T10:15:36;17.90;80.70
70068;DHT22;57425;51.616;6.680;2023-05-07T10:18:03;17.90;80.70
70068;DHT22;57425;51.616;6.680;2023-05-07T10:20:30;17.90;80.60
70068;DHT22;57425;51.616;6.680;2023-05-07T10:22:56;17.90;80.50
70068;DHT22;57425;51.616;6.680;2023-05-07T10:25:30;18.00;80.50
70068;DHT22;57425;51.616;6.680;2023-05-07T10:28:00;18.00;80.70
70068;DHT22;57425;51.616;6.680;2023-05-07T10:33:11;18.00;79.90
70068;DHT22;57425;51.616;6.680;2023-05-07T10:35:41;18.10;80.70
70068;DHT22;57425;51.616;6.680;2023-05-07T10:38:08;18.10;80.50
70068;DHT22;57425;51.616;6.680;2023-05-07T10:40:35;18.10;79.70
70068;DHT22;57425;51.616;6.680;2023-05-07T10:43:02;18.10;80.10
70068;DHT22;57425;51.616;6.680;2023-05-07T10:45:31;18.10;79.30
70068;DHT22;57425;51.616;6.680;2023-05-07T10:48:13;18.10;79.20
70068;DHT22;57425;51.616;6.680;2023-05-07T10:50:41;18.20;79.20
70068;DHT22;57425;51.616;6.680;2023-05-07T10:55:51;18.20;79.60
70068;DHT22;57425;51.616;6.680;2023-05-07T11:00:56;18.20;79.50
70068;DHT22;57425;51.616;6.680;2023-05-07T11:03:22;18.30;79.30
70068;DHT22;57425;51.616;6.680;2023-05-07T11:06:11;18.30;79.10
70068;DHT22;57425;51.616;6.680;2023-05-07T11:08:53;18.30;79.00
70068;DHT22;57425;51.616;6.680;2023-05-07T11:11:19;18.30;79.30
70068;DHT22;57425;51.616;6.680;2023-05-07T11:13:48;18.30;79.60
70068;DHT22;57425;51.616;6.680;2023-05-07T11:16:24;18.30;79.50
70068;DHT22;57425;51.616;6.680;2023-05-07T11:18:56;18.40;79.20
70068;DHT22;57425;51.616;6.680;2023-05-07T11:21:41;18.40;79.10
70068;DHT22;57425;51.616;6.680;2023-05-07T11:24:10;18.40;78.50
70068;DHT22;57425;51.616;6.680;2023-05-07T11:29:22;18.40;78.10
70068;DHT22;57425;51.616;6.680;2023-05-07T11:31:52;18.40;78.30
70068;DHT22;57425;51.616;6.680;2023-05-07T11:34:23;18.40;78.00
70068;DHT22;57425;51.616;6.680;2023-05-07T11:36:49;18.40;78.10
70068;DHT22;57425;51.616;6.680;2023-05-07T11:39:32;18.40;78.20
70068;DHT22;57425;51.616;6.680;2023-05-07T11:42:01;18.50;78.00
70068;DHT22;57425;51.616;6.680;2023-05-07T11:44:44;18.40;77.40
70068;DHT22;57425;51.616;6.680;2023-05-07T11:47:16;18.50;77.00
70068;DHT22;57425;51.616;6.680;2023-05-07T11:49:42;18.50;77.40
70068;DHT22;57425;51.616;6.680;2023-05-07T11:52:08;18.50;77.80
70068;DHT22;57425;51.616;6.680;2023-05-07T11:54:37;18.60;77.90
70068;DHT22;57425;51.616;6.680;2023-05-07T11:57:02;18.60;77.30
70068;DHT22;57425;51.616;6.680;2023-05-07T11:59:28;18.60;77.00
70068;DHT22;57425;51.616;6.680;2023-05-07T12:01:57;18.60;77.00
70068;DHT22;57425;51.616;6.680;2023-05-07T12:04:24;18.60;76.60
70068;DHT22;57425;51.616;6.680;2023-05-07T12:06:54;18.70;76.50
70068;DHT22;57425;51.616;6.680;2023-05-07T12:09:21;18.70;76.90
70068;DHT22;57425;51.616;6.680;2023-05-07T12:11:46;18.80;77.30
70068;DHT22;57425;51.616;6.680;2023-05-07T12:14:12;18.80;77.40
70068;DHT22;57425;51.616;6.680;2023-05-07T12:16:39;18.90;77.80
70068;DHT22;57425;51.616;6.680;2023-05-07T12:19:07;18.90;77.60
70068;DHT22;57425;51.616;6.680;2023-05-07T12:21:34;19.00;77.00
70068;DHT22;57425;51.616;6.680;2023-05-07T12:24:01;19.00;76.50
70068;DHT22;57425;51.616;6.680;2023-05-07T12:26:27;19.00;76.30
70068;DHT22;57425;51.616;6.680;2023-05-07T12:28:53;19.10;76.30
70068;DHT22;57425;51.616;6.680;2023-05-07T12:31:18;19.10;76.10
70068;DHT22;57425;51.616;6.680;2023-05-07T12:33:45;19.10;76.30
70068;DHT22;57425;51.616;6.680;2023-05-07T12:36:12;19.10;76.10
70068;DHT22;57425;51.616;6.680;2023-05-07T12:38:39;19.20;76.00
70068;DHT22;57425;51.616;6.680;2023-05-07T12:41:07;19.20;76.30
70068;DHT22;57425;51.616;6.680;2023-05-07T12:43:33;19.20;75.40
70068;DHT22;57425;51.616;6.680;2023-05-07T12:46:05;19.20;75.80
70068;DHT22;57425;51.616;6.680;2023-05-07T12:48:31;19.20;75.50
70068;DHT22;57425;51.616;6.680;2023-05-07T12:50:58;19.20;75.20
70068;DHT22;57425;51.616;6.680;2023-05-07T12:53:26;19.30;74.60
70068;DHT22;57425;51.616;6.680;2023-05-07T12:55:56;19.30;75.30
70068;DHT22;57425;51.616;6.680;2023-05-07T12:58:27;19.30;75.70
70068;DHT22;57425;51.616;6.680;2023-05-07T13:00:54;19.30;76.50
70068;DHT22;57425;51.616;6.680;2023-05-07T13:03:31;19.40;76.40
70068;DHT22;57425;51.616;6.680;2023-05-07T13:05:59;19.40;76.00
70068;DHT22;57425;51.616;6.680;2023-05-07T13:08:39;19.40;76.70
70068;DHT22;57425;51.616;6.680;2023-05-07T13:11:12;19.40;76.60
70068;DHT22;57425;51.616;6.680;2023-05-07T13:13:39;19.40;76.60
70068;DHT22;57425;51.616;6.680;2023-05-07T13:16:06;19.40;76.80
70068;DHT22;57425;51.616;6.680;2023-05-07T13:18:34;19.40;76.10
70068;DHT22;57425;51.616;6.680;2023-05-07T13:21:01;19.40;76.00
70068;DHT22;57425;51.616;6.680;2023-05-07T13:23:27;19.40;76.20
70068;DHT22;57425;51.616;6.680;2023-05-07T13:25:53;19.50;76.40
70068;DHT22;57425;51.616;6.680;2023-05-07T13:28:20;19.50;76.30
70068;DHT22;57425;51.616;6.680;2023-05-07T13:30:46;19.50;76.50
70068;DHT22;57425;51.616;6.680;2023-05-07T13:33:12;19.50;76.40
70068;DHT22;57425;51.616;6.680;2023-05-07T13:35:38;19.50;76.40
70068;DHT22;57425;51.616;6.680;2023-05-07T13:38:04;19.50;76.30
70068;DHT22;57425;51.616;6.680;2023-05-07T13:40:30;19.60;76.60
70068;DHT22;57425;51.616;6.680;2023-05-07T13:42:57;19.70;76.30
70068;DHT22;57425;51.616;6.680;2023-05-07T13:45:24;19.60;76.70
70068;DHT22;57425;51.616;6.680;2023-05-07T13:47:51;19.60;75.90
70068;DHT22;57425;51.616;6.680;2023-05-07T13:50:17;19.60;75.80
70068;DHT22;57425;51.616;6.680;2023-05-07T13:52:45;19.60;75.90
70068;DHT22;57425;51.616;6.680;2023-05-07T13:55:17;19.70;75.90
70068;DHT22;57425;51.616;6.680;2023-05-07T13:57:44;19.60;75.90
70068;DHT22;57425;51.616;6.680;2023-05-07T14:00:10;19.70;75.70
70068;DHT22;57425;51.616;6.680;2023-05-07T14:02:36;19.70;75.80
70068;DHT22;57425;51.616;6.680;2023-05-07T14:05:02;19.70;75.50
70068;DHT22;57425;51.616;6.680;2023-05-07T14:07:28;19.70;75.60
70068;DHT22;57425;51.616;6.680;2023-05-07T14:09:54;19.70;75.70
70068;DHT22;57425;51.616;6.680;2023-05-07T14:12:22;19.80;75.80
70068;DHT22;57425;51.616;6.680;2023-05-07T14:14:47;19.70;75.70
70068;DHT22;57425;51.616;6.680;2023-05-07T14:17:18;19.70;75.80
70068;DHT22;57425;51.616;6.680;2023-05-07T14:19:45;19.70;75.80
70068;DHT22;57425;51.616;6.680;2023-05-07T14:22:13;19.60;75.70
70068;DHT22;57425;51.616;6.680;2023-05-07T14:24:39;19.70;75.60
70068;DHT22;57425;51.616;6.680;2023-05-07T14:27:05;19.70;75.40
70068;DHT22;57425;51.616;6.680;2023-05-07T14:29:31;19.70;75.50
70068;DHT22;57425;51.616;6.680;2023-05-07T14:31:58;19.70;75.70
70068;DHT22;57425;51.616;6.680;2023-05-07T14:34:24;19.70;75.70
70068;DHT22;57425;51.616;6.680;2023-05-07T14:36:49;19.70;75.30
70068;DHT22;57425;51.616;6.680;2023-05-07T14:39:15;19.70;75.40
70068;DHT22;57425;51.616;6.680;2023-05-07T14:41:40;19.70;75.50
70068;DHT22;57425;51.616;6.680;2023-05-07T14:44:06;19.70;75.30
70068;DHT22;57425;51.616;6.680;2023-05-07T14:46:32;19.70;75.50
70068;DHT22;57425;51.616;6.680;2023-05-07T14:48:57;19.70;75.60
70068;DHT22;57425;51.616;6.680;2023-05-07T14:51:23;19.70;75.80
70068;DHT22;57425;51.616;6.680;2023-05-07T14:53:50;19.70;75.60
70068;DHT22;57425;51.616;6.680;2023-05-07T14:56:16;19.70;75.70
70068;DHT22;57425;51.616;6.680;2023-05-07T14:58:42;19.70;75.80
70068;DHT22;57425;51.616;6.680;2023-05-07T15:01:08;19.70;75.80
70068;DHT22;57425;51.616;6.680;2023-05-07T15:03:34;19.70;75.80
70068;DHT22;57425;51.616;6.680;2023-05-07T15:06:01;19.70;75.80
70068;DHT22;57425;51.616;6.680;2023-05-07T15:08:27;19.70;76.00
70068;DHT22;57425;51.616;6.680;2023-05-07T15:10:53;19.70;76.30
70068;DHT22;57425;51.616;6.680;2023-05-07T15:13:20;19.70;76.40
70068;DHT22;57425;51.616;6.680;2023-05-07T15:15:47;19.70;76.50
70068;DHT22;57425;51.616;6.680;2023-05-07T15:18:14;19.70;76.60
70068;DHT22;57425;51.616;6.680;2023-05-07T15:20:40;19.70;76.50
70068;DHT22;57425;51.616;6.680;2023-05-07T15:23:06;19.80;76.50
70068;DHT22;57425;51.616;6.680;2023-05-07T15:25:35;19.80;77.10
70068;DHT22;57425;51.616;6.680;2023-05-07T15:28:03;19.80;76.70
70068;DHT22;57425;51.616;6.680;2023-05-07T15:30:29;19.80;77.20
70068;DHT22;57425;51.616;6.680;2023-05-07T15:32:55;19.80;76.40
70068;DHT22;57425;51.616;6.680;2023-05-07T15:35:21;19.80;76.40
70068;DHT22;57425;51.616;6.680;2023-05-07T15:37:48;19.80;76.40